Time;durP1;ratioP1;P1;durP2;ratioP2;P2;SDS_P1;SDS_P2;PMS_P1;PMS_P2;Temp;Humidity;BMP_temperature;BMP_pressure;BME280_temperature;BME280_humidity;BME280_pressure;Samples;Min_cycle;Max_cycle;Signal;HPM_P1;HPM_P2
2022/03/27 00:00:41;;;;;;;;;;;7.20;99.90;;;;;;5071010;28;20430;-78
2022/03/27 00:03:07;;;;;;;;;;;7.20;99.90;;;;;;5070052;28;19908;-78
2022/03/27 00:05:33;;;;;;;;;;;7.30;99.90;;;;;;5071873;28;19958;-78
2022/03/27 00:07:58;;;;;;;;;;;7.20;99.90;;;;;;5073292;28;20038;-78
2022/03/27 00:10:24;;;;;;;;;;;7.20;99.90;;;;;;5073832;28;19986;-78
2022/03/27 00:12:50;;;;;;;;;;;7.20;99.90;;;;;;5075793;28;20421;-78
2022/03/27 00:15:15;;;;;;;;;;;7.20;99.90;;;;;;5074690;28;19908;-78
2022/03/27 00:17:41;;;;;;;;;;;7.10;99.90;;;;;;5075645;28;19908;-78
2022/03/27 00:20:09;;;;;;;;;;;7.10;99.90;;;;;;5075216;28;19912;-78
2022/03/27 00:22:37;;;;;;;;;;;7.10;99.90;;;;;;5075392;28;19939;-78
2022/03/27 00:25:04;;;;;;;;;;;7.00;99.90;;;;;;5075404;28;19919;-78
2022/03/27 00:27:30;;;;;;;;;;;6.90;99.90;;;;;;5075304;28;19952;-77
2022/03/27 00:29:56;;;;;;;;;;;6.90;99.90;;;;;;5075145;28;19943;-78
2022/03/27 00:32:22;;;;;;;;;;;6.90;99.90;;;;;;5074608;28;20037;-78
2022/03/27 00:34:48;;;;;;;;;;;6.90;99.90;;;;;;5075199;28;19908;-78
2022/03/27 00:37:14;;;;;;;;;;;6.90;99.90;;;;;;5074850;28;19908;-78
2022/03/27 00:39:39;;;;;;;;;;;6.80;99.90;;;;;;5075237;28;19919;-78
2022/03/27 00:42:05;;;;;;;;;;;6.80;99.90;;;;;;5074516;28;19917;-78
2022/03/27 00:44:31;;;;;;;;;;;6.80;99.90;;;;;;5075041;28;19908;-78
2022/03/27 00:46:58;;;;;;;;;;;6.80;99.90;;;;;;5073727;28;20365;-78
2022/03/27 00:49:23;;;;;;;;;;;6.80;99.90;;;;;;5074461;28;19910;-78
2022/03/27 00:51:49;;;;;;;;;;;6.70;99.90;;;;;;5073726;28;19966;-78
2022/03/27 00:54:14;;;;;;;;;;;6.60;99.90;;;;;;5074372;28;19947;-78
2022/03/27 00:56:40;;;;;;;;;;;6.60;99.90;;;;;;5074788;28;20019;-78
2022/03/27 00:59:06;;;;;;;;;;;6.50;99.90;;;;;;5073987;28;19913;-78
2022/03/27 01:01:32;;;;;;;;;;;6.40;99.90;;;;;;5074772;28;20357;-78
2022/03/27 01:03:58;;;;;;;;;;;6.30;99.90;;;;;;5075163;28;19915;-78
2022/03/27 01:06:25;;;;;;;;;;;6.30;99.90;;;;;;5074314;28;19996;-78
2022/03/27 01:11:36;;;;;;;;;;;6.30;99.90;;;;;;5074597;28;19953;-78
2022/03/27 01:14:02;;;;;;;;;;;6.30;99.90;;;;;;5074348;28;19908;-78
2022/03/27 01:16:36;;;;;;;;;;;6.30;99.90;;;;;;5074026;28;20380;-78
2022/03/27 01:19:02;;;;;;;;;;;6.30;99.90;;;;;;5073406;28;20415;-78
2022/03/27 01:21:28;;;;;;;;;;;6.30;99.90;;;;;;5073663;28;19924;-78
2022/03/27 01:23:54;;;;;;;;;;;6.30;99.90;;;;;;5073025;28;19913;-78
2022/03/27 01:26:20;;;;;;;;;;;6.40;99.90;;;;;;5074376;28;20072;-77
2022/03/27 01:28:46;;;;;;;;;;;6.30;99.90;;;;;;5074755;28;20012;-77
2022/03/27 01:31:11;;;;;;;;;;;6.30;99.90;;;;;;5074582;28;20003;-77
2022/03/27 01:33:37;;;;;;;;;;;6.40;99.90;;;;;;5074883;28;20367;-77
2022/03/27 01:36:03;;;;;;;;;;;6.30;99.90;;;;;;5075139;28;20016;-77
2022/03/27 01:38:28;;;;;;;;;;;6.30;99.90;;;;;;5073824;28;19938;-77
2022/03/27 01:40:54;;;;;;;;;;;6.20;99.90;;;;;;5073215;28;19916;-77
2022/03/27 01:43:19;;;;;;;;;;;6.10;99.90;;;;;;5073817;28;20262;-77
2022/03/27 01:45:45;;;;;;;;;;;6.10;99.90;;;;;;5074112;28;19930;-77
2022/03/27 01:48:10;;;;;;;;;;;6.00;99.90;;;;;;5073883;28;19908;-77
2022/03/27 01:50:36;;;;;;;;;;;6.00;99.90;;;;;;5074937;28;20408;-77
2022/03/27 01:53:02;;;;;;;;;;;6.00;99.90;;;;;;5074552;28;19908;-77
2022/03/27 01:55:28;;;;;;;;;;;6.10;99.90;;;;;;5072411;28;19904;-77
2022/03/27 01:57:54;;;;;;;;;;;6.10;99.90;;;;;;5074392;28;19928;-77
2022/03/27 02:00:19;;;;;;;;;;;6.00;99.90;;;;;;5073336;28;19953;-77
2022/03/27 02:02:45;;;;;;;;;;;6.00;99.90;;;;;;5106705;28;19957;-77
2022/03/27 02:05:11;;;;;;;;;;;5.90;99.90;;;;;;5073472;28;19909;-77
2022/03/27 02:07:38;;;;;;;;;;;5.80;99.90;;;;;;5073948;28;20007;-77
2022/03/27 02:10:05;;;;;;;;;;;5.80;99.90;;;;;;5073702;28;20329;-77
2022/03/27 02:12:34;;;;;;;;;;;5.90;99.90;;;;;;5072810;28;20414;-77
2022/03/27 02:14:59;;;;;;;;;;;5.80;99.90;;;;;;5073947;28;20011;-76
2022/03/27 02:17:25;;;;;;;;;;;5.80;99.90;;;;;;5073221;28;19943;-77
2022/03/27 02:19:51;;;;;;;;;;;5.90;99.90;;;;;;5075229;28;20277;-77
2022/03/27 02:22:16;;;;;;;;;;;5.90;99.90;;;;;;5074585;28;19924;-77
2022/03/27 02:24:42;;;;;;;;;;;5.90;99.90;;;;;;5073910;28;19917;-77
2022/03/27 02:27:07;;;;;;;;;;;5.90;99.90;;;;;;5073785;28;20269;-77
2022/03/27 02:29:33;;;;;;;;;;;5.80;99.90;;;;;;5073471;28;19916;-76
2022/03/27 02:31:58;;;;;;;;;;;5.70;99.90;;;;;;5072107;28;19908;-77
2022/03/27 02:34:24;;;;;;;;;;;5.70;99.90;;;;;;5073174;28;20392;-76
2022/03/27 02:36:49;;;;;;;;;;;5.60;99.90;;;;;;5073339;28;19912;-76
2022/03/27 02:39:15;;;;;;;;;;;5.70;99.90;;;;;;5073057;28;19912;-76
2022/03/27 02:41:41;;;;;;;;;;;5.70;99.90;;;;;;5073342;28;19923;-77
2022/03/27 02:44:07;;;;;;;;;;;5.70;99.90;;;;;;5073403;28;19909;-76
2022/03/27 02:46:33;;;;;;;;;;;5.60;99.90;;;;;;5072942;28;20011;-76
2022/03/27 02:48:59;;;;;;;;;;;5.50;99.90;;;;;;5073496;28;19944;-76
2022/03/27 02:51:24;;;;;;;;;;;5.50;99.90;;;;;;5072938;28;19908;-77
2022/03/27 02:53:50;;;;;;;;;;;5.50;99.90;;;;;;5073345;28;19999;-76
2022/03/27 02:56:15;;;;;;;;;;;5.50;99.90;;;;;;5072725;28;20023;-77
2022/03/27 02:58:41;;;;;;;;;;;5.40;99.90;;;;;;5073401;28;19999;-77
2022/03/27 03:01:07;;;;;;;;;;;5.40;99.90;;;;;;5073048;28;19923;-77
2022/03/27 03:03:33;;;;;;;;;;;5.50;99.90;;;;;;5072728;28;20559;-77
2022/03/27 03:05:59;;;;;;;;;;;5.50;99.90;;;;;;5073030;28;19933;-77
2022/03/27 03:08:26;;;;;;;;;;;5.50;99.90;;;;;;5072240;28;19909;-77
2022/03/27 03:10:52;;;;;;;;;;;5.50;99.90;;;;;;5073023;28;19908;-77
2022/03/27 03:13:17;;;;;;;;;;;5.40;99.90;;;;;;5072461;28;19908;-76
2022/03/27 03:15:43;;;;;;;;;;;5.40;99.90;;;;;;5073160;28;19916;-76
2022/03/27 03:18:10;;;;;;;;;;;5.40;99.90;;;;;;5072833;28;20342;-76
2022/03/27 03:20:36;;;;;;;;;;;5.30;99.90;;;;;;5072400;28;19920;-76
2022/03/27 03:23:02;;;;;;;;;;;5.30;99.90;;;;;;5072791;28;20281;-77
2022/03/27 03:25:27;;;;;;;;;;;5.20;99.90;;;;;;5071967;28;19916;-77
2022/03/27 03:27:53;;;;;;;;;;;5.20;99.90;;;;;;5072981;28;19909;-77
2022/03/27 03:30:19;;;;;;;;;;;5.20;99.90;;;;;;5072329;28;20319;-77
2022/03/27 03:32:44;;;;;;;;;;;5.20;99.90;;;;;;5073078;28;20242;-77
2022/03/27 03:35:10;;;;;;;;;;;5.10;99.90;;;;;;5073023;28;20361;-77
2022/03/27 03:37:37;;;;;;;;;;;5.10;99.90;;;;;;5073595;28;19915;-77
2022/03/27 03:40:03;;;;;;;;;;;5.00;99.90;;;;;;5072545;28;20345;-77
2022/03/27 03:42:29;;;;;;;;;;;5.00;99.90;;;;;;5072686;28;19922;-77
2022/03/27 03:44:54;;;;;;;;;;;5.00;99.90;;;;;;5076876;28;20006;-77
2022/03/27 03:47:20;;;;;;;;;;;5.00;99.90;;;;;;5075017;28;19966;-77
2022/03/27 03:49:46;;;;;;;;;;;5.00;99.90;;;;;;5076984;28;20277;-77
2022/03/27 03:52:11;;;;;;;;;;;5.00;99.90;;;;;;5076901;28;19909;-77
2022/03/27 03:54:37;;;;;;;;;;;5.10;99.90;;;;;;5076341;28;20767;-77
2022/03/27 03:57:04;;;;;;;;;;;5.10;99.90;;;;;;5074904;28;19928;-77
2022/03/27 03:59:31;;;;;;;;;;;5.00;99.90;;;;;;5076197;28;19954;-77
2022/03/27 04:01:57;;;;;;;;;;;5.00;99.90;;;;;;5076447;28;19964;-77
2022/03/27 04:04:23;;;;;;;;;;;5.00;99.90;;;;;;5076454;28;19983;-77
2022/03/27 04:06:48;;;;;;;;;;;5.10;99.90;;;;;;5076476;28;19908;-77
2022/03/27 04:09:14;;;;;;;;;;;4.90;99.90;;;;;;5074809;28;19983;-77
2022/03/27 04:11:40;;;;;;;;;;;4.90;99.90;;;;;;5075688;28;19919;-77
2022/03/27 04:14:05;;;;;;;;;;;4.90;99.90;;;;;;5076141;28;19916;-77
2022/03/27 04:16:31;;;;;;;;;;;5.00;99.90;;;;;;5075903;28;19909;-76
2022/03/27 04:18:56;;;;;;;;;;;5.00;99.90;;;;;;5075763;28;20003;-77
2022/03/27 04:21:22;;;;;;;;;;;5.00;99.90;;;;;;5075478;28;19916;-77
2022/03/27 04:23:48;;;;;;;;;;;5.00;99.90;;;;;;5076187;28;19951;-76
2022/03/27 04:26:13;;;;;;;;;;;5.00;99.90;;;;;;5075907;28;19962;-77
2022/03/27 04:28:39;;;;;;;;;;;5.00;99.90;;;;;;5075614;28;20722;-76
2022/03/27 04:31:04;;;;;;;;;;;4.90;99.90;;;;;;5075952;28;19912;-77
2022/03/27 04:33:30;;;;;;;;;;;4.80;99.90;;;;;;5075330;28;19918;-76
2022/03/27 04:35:56;;;;;;;;;;;4.90;99.90;;;;;;5075002;28;19916;-76
2022/03/27 04:38:21;;;;;;;;;;;4.90;99.90;;;;;;5075473;28;19953;-76
2022/03/27 04:40:47;;;;;;;;;;;4.90;99.90;;;;;;5075906;28;19924;-76
2022/03/27 04:43:13;;;;;;;;;;;4.90;99.90;;;;;;5108518;28;20361;-76
2022/03/27 04:45:39;;;;;;;;;;;4.90;99.90;;;;;;5074937;28;20362;-76
2022/03/27 04:48:04;;;;;;;;;;;4.90;99.90;;;;;;5075725;28;19913;-76
2022/03/27 04:50:30;;;;;;;;;;;4.80;99.90;;;;;;5075072;28;20321;-76
2022/03/27 04:52:56;;;;;;;;;;;4.70;99.90;;;;;;5077480;28;19909;-76
2022/03/27 04:55:21;;;;;;;;;;;4.70;99.90;;;;;;5075212;28;19913;-76
2022/03/27 04:57:48;;;;;;;;;;;4.80;99.90;;;;;;5075618;28;19921;-77
2022/03/27 05:00:20;;;;;;;;;;;4.80;99.90;;;;;;5075492;28;20419;-76
2022/03/27 05:02:46;;;;;;;;;;;4.80;99.90;;;;;;5074872;28;20263;-76
2022/03/27 05:05:11;;;;;;;;;;;4.80;99.90;;;;;;5075256;28;19915;-76
2022/03/27 05:07:38;;;;;;;;;;;4.80;99.90;;;;;;5074554;28;19948;-76
2022/03/27 05:10:04;;;;;;;;;;;4.70;99.90;;;;;;5075246;28;19915;-76
2022/03/27 05:12:30;;;;;;;;;;;4.70;99.90;;;;;;5073309;28;19919;-76
2022/03/27 05:14:56;;;;;;;;;;;4.60;99.90;;;;;;5075129;28;20278;-77
2022/03/27 05:17:21;;;;;;;;;;;4.60;99.90;;;;;;5074968;28;20262;-77
2022/03/27 05:19:47;;;;;;;;;;;4.60;99.90;;;;;;5074608;28;19908;-77
2022/03/27 05:22:13;;;;;;;;;;;4.60;99.90;;;;;;5075152;28;20031;-77
2022/03/27 05:24:38;;;;;;;;;;;4.60;99.90;;;;;;5074529;28;19915;-77
2022/03/27 05:27:04;;;;;;;;;;;4.60;99.90;;;;;;5074793;28;19909;-78
2022/03/27 05:29:30;;;;;;;;;;;4.60;99.90;;;;;;5074443;28;20007;-77
2022/03/27 05:31:57;;;;;;;;;;;4.60;99.90;;;;;;5074782;28;19977;-77
2022/03/27 05:34:23;;;;;;;;;;;4.50;99.90;;;;;;5073283;28;19915;-77
2022/03/27 05:36:49;;;;;;;;;;;4.50;99.90;;;;;;5074690;28;19909;-77
2022/03/27 05:39:14;;;;;;;;;;;4.50;99.90;;;;;;5074794;28;19954;-77
2022/03/27 05:41:40;;;;;;;;;;;4.50;99.90;;;;;;5074208;28;19920;-77
2022/03/27 05:44:05;;;;;;;;;;;4.50;99.90;;;;;;5074816;28;19912;-76
2022/03/27 05:46:31;;;;;;;;;;;4.40;99.90;;;;;;5073938;28;19915;-76
2022/03/27 05:48:57;;;;;;;;;;;4.40;99.90;;;;;;5074760;28;19947;-76
2022/03/27 05:51:22;;;;;;;;;;;4.30;99.90;;;;;;5073201;28;19969;-76
2022/03/27 05:53:48;;;;;;;;;;;4.40;99.90;;;;;;5073751;28;19912;-76
2022/03/27 05:56:13;;;;;;;;;;;4.30;99.90;;;;;;5074147;28;20332;-76
2022/03/27 05:58:39;;;;;;;;;;;4.30;99.90;;;;;;5072582;28;19912;-76
2022/03/27 06:01:05;;;;;;;;;;;4.30;99.90;;;;;;5074296;28;19924;-77
2022/03/27 06:03:30;;;;;;;;;;;4.30;99.90;;;;;;5072368;28;20300;-76
2022/03/27 06:05:56;;;;;;;;;;;4.40;99.90;;;;;;5074024;28;20270;-77
2022/03/27 06:08:22;;;;;;;;;;;4.40;99.90;;;;;;5074091;28;19945;-77
2022/03/27 06:10:49;;;;;;;;;;;4.40;99.90;;;;;;5073621;28;19965;-77
2022/03/27 06:13:16;;;;;;;;;;;4.40;99.90;;;;;;5073793;28;19908;-77
2022/03/27 06:15:42;;;;;;;;;;;4.40;99.90;;;;;;5072845;28;20293;-76
2022/03/27 06:18:09;;;;;;;;;;;4.40;99.90;;;;;;5074277;28;19912;-76
2022/03/27 06:20:34;;;;;;;;;;;4.40;99.90;;;;;;5072978;28;19908;-76
2022/03/27 06:23:01;;;;;;;;;;;4.40;99.90;;;;;;5073916;28;20277;-76
2022/03/27 06:25:27;;;;;;;;;;;4.40;99.90;;;;;;5073423;28;19909;-76
2022/03/27 06:27:54;;;;;;;;;;;4.40;99.90;;;;;;5072118;28;19916;-76
2022/03/27 06:30:21;;;;;;;;;;;4.40;99.90;;;;;;5073693;28;20350;-77
2022/03/27 06:32:47;;;;;;;;;;;4.50;99.90;;;;;;5072934;28;19916;-77
2022/03/27 06:35:13;;;;;;;;;;;4.60;99.90;;;;;;5073648;28;19908;-76
2022/03/27 06:37:39;;;;;;;;;;;4.70;99.90;;;;;;5071755;28;19961;-76
2022/03/27 06:40:05;;;;;;;;;;;4.80;99.90;;;;;;5073954;28;19909;-76
2022/03/27 06:42:31;;;;;;;;;;;4.80;99.90;;;;;;5072863;28;19916;-77
2022/03/27 06:44:56;;;;;;;;;;;4.80;99.90;;;;;;5073362;28;19991;-77
2022/03/27 06:47:23;;;;;;;;;;;4.90;99.90;;;;;;5076449;28;19930;-77
2022/03/27 06:49:49;;;;;;;;;;;5.00;99.90;;;;;;5092093;28;19931;-77
2022/03/27 06:52:15;;;;;;;;;;;5.20;99.90;;;;;;5094055;28;19908;-77
2022/03/27 06:54:41;;;;;;;;;;;5.20;99.90;;;;;;5093290;28;20345;-77
2022/03/27 06:57:06;;;;;;;;;;;5.30;99.90;;;;;;5093318;28;19970;-76
2022/03/27 07:03:01;;;;;;;;;;;5.40;99.90;;;;;;5092914;28;19915;-76
2022/03/27 07:05:03;;;;;;;;;;;5.50;99.90;;;;;;5092837;28;19915;-76
2022/03/27 07:07:28;;;;;;;;;;;5.60;99.90;;;;;;5092597;28;19909;-76
2022/03/27 07:09:54;;;;;;;;;;;5.70;99.90;;;;;;5092881;28;19909;-76
2022/03/27 07:12:19;;;;;;;;;;;5.80;99.90;;;;;;5093228;28;19912;-76
2022/03/27 07:14:46;;;;;;;;;;;5.90;99.90;;;;;;5092643;28;19931;-76
2022/03/27 07:17:15;;;;;;;;;;;6.00;99.90;;;;;;5093014;28;19908;-76
2022/03/27 07:19:41;;;;;;;;;;;6.10;99.90;;;;;;5092621;28;19919;-76
2022/03/27 07:22:07;;;;;;;;;;;6.20;99.90;;;;;;5092877;28;19920;-76
2022/03/27 07:24:32;;;;;;;;;;;6.30;99.90;;;;;;5092669;28;19999;-76
2022/03/27 07:26:58;;;;;;;;;;;6.50;99.90;;;;;;5092882;28;19908;-76
2022/03/27 07:29:23;;;;;;;;;;;6.50;99.90;;;;;;5093213;28;19908;-76
2022/03/27 07:31:49;;;;;;;;;;;6.60;99.90;;;;;;5092278;28;20390;-76
2022/03/27 07:34:16;;;;;;;;;;;6.70;99.90;;;;;;5091641;28;19912;-76
2022/03/27 07:36:42;;;;;;;;;;;6.90;99.90;;;;;;5091927;28;19935;-76
2022/03/27 07:39:09;;;;;;;;;;;7.00;99.90;;;;;;5092843;28;20335;-76
2022/03/27 07:41:35;;;;;;;;;;;7.10;99.90;;;;;;5092193;28;19915;-76
2022/03/27 07:44:00;;;;;;;;;;;7.20;99.90;;;;;;5091734;28;19961;-77
2022/03/27 07:46:26;;;;;;;;;;;7.30;99.90;;;;;;5092464;28;20327;-76
2022/03/27 07:48:52;;;;;;;;;;;7.40;99.90;;;;;;5092136;28;19916;-77
2022/03/27 07:51:17;;;;;;;;;;;7.50;99.90;;;;;;5092810;28;19912;-76
2022/03/27 07:53:43;;;;;;;;;;;7.70;99.90;;;;;;5092170;28;20269;-77
2022/03/27 07:56:09;;;;;;;;;;;7.90;99.90;;;;;;5092600;28;20002;-77
2022/03/27 07:58:34;;;;;;;;;;;8.00;99.90;;;;;;5092354;28;19955;-77
2022/03/27 08:01:00;;;;;;;;;;;8.20;99.90;;;;;;5092706;28;19927;-77
2022/03/27 08:03:26;;;;;;;;;;;8.30;99.90;;;;;;5092570;28;19912;-76
2022/03/27 08:05:51;;;;;;;;;;;8.40;99.90;;;;;;5091983;28;20277;-77
2022/03/27 08:08:17;;;;;;;;;;;8.60;99.90;;;;;;5091657;28;19908;-76
2022/03/27 08:10:43;;;;;;;;;;;8.80;99.90;;;;;;5092028;28;20336;-77
2022/03/27 08:13:09;;;;;;;;;;;8.90;99.90;;;;;;5092711;28;19961;-77
2022/03/27 08:15:34;;;;;;;;;;;9.10;99.90;;;;;;5091985;28;20281;-77
2022/03/27 08:18:00;;;;;;;;;;;9.30;99.90;;;;;;5090992;28;19955;-77
2022/03/27 08:20:27;;;;;;;;;;;9.50;99.90;;;;;;5092406;28;20006;-77
2022/03/27 08:22:53;;;;;;;;;;;9.70;99.90;;;;;;5091853;28;19999;-77
2022/03/27 08:28:03;;;;;;;;;;;9.90;99.90;;;;;;5092610;28;19915;-78
2022/03/27 08:30:29;;;;;;;;;;;10.00;99.90;;;;;;5095835;28;20269;-78
2022/03/27 08:32:54;;;;;;;;;;;10.10;99.90;;;;;;5095417;28;19912;-78
2022/03/27 08:35:20;;;;;;;;;;;10.20;99.90;;;;;;5095045;28;19918;-78
2022/03/27 08:37:46;;;;;;;;;;;10.30;99.90;;;;;;5095628;28;19915;-77
2022/03/27 08:40:14;;;;;;;;;;;10.50;99.90;;;;;;5094725;28;19908;-77
2022/03/27 08:42:39;;;;;;;;;;;10.50;99.90;;;;;;5094965;28;19916;-77
2022/03/27 08:45:05;;;;;;;;;;;10.70;99.90;;;;;;5096033;28;19908;-77
2022/03/27 08:47:31;;;;;;;;;;;10.80;99.90;;;;;;5095745;28;19991;-77
2022/03/27 08:50:03;;;;;;;;;;;10.90;99.90;;;;;;5095290;28;19939;-77
2022/03/27 08:52:28;;;;;;;;;;;11.00;99.90;;;;;;5095568;28;20011;-77
2022/03/27 08:55:01;;;;;;;;;;;11.10;99.90;;;;;;5095119;28;19947;-77
2022/03/27 08:57:36;;;;;;;;;;;11.20;99.90;;;;;;5095675;28;19974;-77
2022/03/27 09:00:02;;;;;;;;;;;11.30;99.90;;;;;;5095428;28;20071;-77
2022/03/27 09:02:33;;;;;;;;;;;11.40;99.90;;;;;;5095388;28;19916;-77
2022/03/27 09:04:59;;;;;;;;;;;11.50;99.90;;;;;;5095040;28;20157;-75
2022/03/27 09:07:27;;;;;;;;;;;11.60;99.90;;;;;;5095514;28;19914;-78
2022/03/27 09:09:53;;;;;;;;;;;11.60;99.90;;;;;;5094969;28;19915;-77
2022/03/27 09:12:19;;;;;;;;;;;11.80;99.90;;;;;;5095283;28;19908;-77
2022/03/27 09:14:45;;;;;;;;;;;11.80;99.90;;;;;;5094605;28;19919;-75
2022/03/27 09:17:11;;;;;;;;;;;11.80;99.90;;;;;;5095034;28;19908;-77
2022/03/27 09:19:46;;;;;;;;;;;11.80;99.90;;;;;;5095157;28;19947;-77
2022/03/27 09:22:13;;;;;;;;;;;11.90;99.90;;;;;;5095032;28;19923;-77
2022/03/27 09:24:39;;;;;;;;;;;11.90;99.90;;;;;;5094648;28;19908;-77
2022/03/27 09:27:05;;;;;;;;;;;12.00;99.90;;;;;;5094329;28;20285;-77
2022/03/27 09:29:50;;;;;;;;;;;12.10;99.90;;;;;;5095004;28;19912;-77
2022/03/27 09:32:29;;;;;;;;;;;12.10;99.90;;;;;;5093300;28;20365;-74
2022/03/27 09:35:00;;;;;;;;;;;12.20;99.90;;;;;;5094031;28;19908;-77
2022/03/27 09:37:29;;;;;;;;;;;12.20;99.90;;;;;;5094797;28;19915;-77
2022/03/27 09:39:58;;;;;;;;;;;12.30;99.90;;;;;;5093393;28;19915;-77
2022/03/27 09:42:24;;;;;;;;;;;12.30;99.90;;;;;;5094403;28;19917;-78
2022/03/27 09:45:08;;;;;;;;;;;12.40;99.90;;;;;;5094225;28;19916;-78
2022/03/27 09:47:33;;;;;;;;;;;12.30;99.90;;;;;;5094645;28;19908;-77
2022/03/27 09:49:59;;;;;;;;;;;12.30;99.90;;;;;;5094085;28;19915;-77
2022/03/27 09:52:25;;;;;;;;;;;12.30;99.90;;;;;;5100220;28;19908;-77
2022/03/27 09:54:50;;;;;;;;;;;12.30;99.90;;;;;;5093026;28;19912;-77
2022/03/27 09:57:20;;;;;;;;;;;12.40;99.90;;;;;;5094414;28;20261;-77
2022/03/27 09:59:46;;;;;;;;;;;12.40;99.90;;;;;;5094192;28;19915;-77
2022/03/27 10:02:17;;;;;;;;;;;12.40;99.90;;;;;;5093137;28;20463;-77
2022/03/27 10:04:52;;;;;;;;;;;12.40;99.90;;;;;;5094181;28;19914;-78
2022/03/27 10:07:22;;;;;;;;;;;12.50;99.90;;;;;;5094189;28;19912;-77
2022/03/27 10:09:48;;;;;;;;;;;12.50;99.90;;;;;;5093658;28;19949;-78
2022/03/27 10:12:15;;;;;;;;;;;12.60;99.90;;;;;;5093966;28;20345;-78
2022/03/27 10:14:41;;;;;;;;;;;12.50;99.90;;;;;;5094065;28;19947;-77
2022/03/27 10:17:08;;;;;;;;;;;12.50;99.90;;;;;;5093657;28;19915;-77
2022/03/27 10:19:38;;;;;;;;;;;12.50;99.90;;;;;;5093898;28;19955;-77
2022/03/27 10:22:05;;;;;;;;;;;12.60;99.90;;;;;;5093429;28;19916;-78
2022/03/27 10:24:32;;;;;;;;;;;12.60;99.90;;;;;;5093890;28;19974;-77
2022/03/27 10:26:58;;;;;;;;;;;12.60;99.90;;;;;;5092236;28;19912;-77
2022/03/27 10:29:25;;;;;;;;;;;12.60;99.90;;;;;;5093803;28;19912;-77
2022/03/27 10:31:51;;;;;;;;;;;12.60;99.90;;;;;;5093124;28;19912;-78
2022/03/27 10:34:19;;;;;;;;;;;12.50;99.90;;;;;;5093727;28;19934;-77
2022/03/27 10:36:50;;;;;;;;;;;12.50;99.90;;;;;;5093481;28;20003;-78
2022/03/27 10:39:28;;;;;;;;;;;12.60;99.90;;;;;;5093650;28;20412;-78
2022/03/27 10:42:08;;;;;;;;;;;12.50;99.90;;;;;;5092667;28;20460;-78
2022/03/27 10:44:38;;;;;;;;;;;12.60;99.90;;;;;;5093548;28;19915;-78
2022/03/27 10:47:14;;;;;;;;;;;12.60;99.90;;;;;;5093124;28;19915;-78
2022/03/27 10:49:59;;;;;;;;;;;12.70;99.90;;;;;;5093421;28;19908;-74
2022/03/27 10:52:26;;;;;;;;;;;12.70;99.90;;;;;;5092429;28;20009;-75
2022/03/27 10:54:55;;;;;;;;;;;12.70;99.90;;;;;;5092744;28;20400;-76
2022/03/27 10:57:31;;;;;;;;;;;12.60;99.90;;;;;;5092967;28;19924;-76
2022/03/27 10:59:57;;;;;;;;;;;12.60;99.90;;;;;;5092679;28;19911;-76
2022/03/27 11:02:43;;;;;;;;;;;12.70;99.90;;;;;;5093067;28;19961;-76
2022/03/27 11:05:08;;;;;;;;;;;12.80;99.90;;;;;;5095522;28;19912;-76
2022/03/27 11:07:34;;;;;;;;;;;12.70;99.90;;;;;;5093275;28;19908;-77
2022/03/27 11:09:59;;;;;;;;;;;12.80;99.90;;;;;;5092525;28;19931;-77
2022/03/27 11:12:25;;;;;;;;;;;12.90;99.90;;;;;;5091673;28;20006;-76
2022/03/27 11:14:53;;;;;;;;;;;12.90;99.90;;;;;;5091889;28;19926;-78
2022/03/27 11:17:32;;;;;;;;;;;12.90;99.90;;;;;;5092526;28;20361;-77
2022/03/27 11:19:58;;;;;;;;;;;12.90;99.90;;;;;;5092300;28;19919;-77
2022/03/27 11:22:43;;;;;;;;;;;12.80;99.90;;;;;;5092670;28;19916;-77
2022/03/27 11:25:28;;;;;;;;;;;12.70;99.90;;;;;;5092167;28;20400;-76
2022/03/27 11:27:57;;;;;;;;;;;12.70;99.90;;;;;;5092297;28;19982;-76
2022/03/27 11:30:23;;;;;;;;;;;12.60;99.90;;;;;;5092590;28;19954;-75
2022/03/27 11:33:08;;;;;;;;;;;12.60;99.90;;;;;;5092263;28;19915;-77
2022/03/27 11:35:33;;;;;;;;;;;12.60;99.90;;;;;;5091213;28;19966;-76
2022/03/27 11:38:17;;;;;;;;;;;12.60;99.90;;;;;;5092020;28;19952;-76
2022/03/27 11:40:43;;;;;;;;;;;12.50;99.90;;;;;;5092959;28;19908;-76
2022/03/27 11:43:27;;;;;;;;;;;12.50;99.90;;;;;;5092017;28;19993;-75
2022/03/27 11:45:54;;;;;;;;;;;12.50;99.90;;;;;;5091484;28;19908;-77
2022/03/27 11:48:20;;;;;;;;;;;12.60;99.90;;;;;;5092183;28;20323;-76
2022/03/27 11:50:45;;;;;;;;;;;12.50;99.90;;;;;;5093599;28;19937;-76
2022/03/27 11:53:12;;;;;;;;;;;12.40;99.90;;;;;;5092281;28;20086;-76
2022/03/27 11:55:39;;;;;;;;;;;12.40;99.90;;;;;;5092521;28;19911;-76
2022/03/27 11:58:07;;;;;;;;;;;12.40;99.90;;;;;;5091737;28;19921;-76
2022/03/27 12:00:37;;;;;;;;;;;12.40;99.90;;;;;;5092385;28;19995;-75
2022/03/27 12:03:05;;;;;;;;;;;12.40;99.90;;;;;;5091867;28;19985;-76
2022/03/27 12:05:35;;;;;;;;;;;12.50;99.90;;;;;;5096340;28;19919;-76
2022/03/27 12:08:02;;;;;;;;;;;12.50;99.90;;;;;;5095921;28;19991;-76
2022/03/27 12:10:28;;;;;;;;;;;12.60;99.90;;;;;;5096394;28;20011;-76
2022/03/27 12:13:01;;;;;;;;;;;12.70;99.90;;;;;;5095719;28;20041;-77
2022/03/27 12:15:39;;;;;;;;;;;12.70;99.90;;;;;;5094805;28;19979;-76
2022/03/27 12:18:05;;;;;;;;;;;12.80;99.90;;;;;;5104048;28;19961;-77
2022/03/27 12:20:47;;;;;;;;;;;12.90;99.90;;;;;;5093327;28;19915;-76
2022/03/27 12:23:39;;;;;;;;;;;12.80;99.90;;;;;;5096296;28;19977;-76
2022/03/27 12:29:39;;;;;;;;;;;12.80;99.90;;;;;;5091439;28;19908;-76
2022/03/27 12:31:41;;;;;;;;;;;12.80;99.90;;;;;;5085147;28;20379;-76
2022/03/27 12:34:06;;;;;;;;;;;12.80;99.90;;;;;;5095315;28;19908;-77
2022/03/27 12:36:32;;;;;;;;;;;12.90;99.90;;;;;;5095480;28;20354;-76
2022/03/27 12:38:57;;;;;;;;;;;12.90;99.90;;;;;;5095329;28;19913;-76
2022/03/27 12:41:42;;;;;;;;;;;13.00;99.90;;;;;;5095128;28;19916;-77
2022/03/27 12:44:07;;;;;;;;;;;12.90;99.90;;;;;;5097064;28;19993;-78
2022/03/27 12:46:33;;;;;;;;;;;13.00;99.90;;;;;;5098231;28;20286;-77
2022/03/27 12:48:58;;;;;;;;;;;13.00;99.90;;;;;;5095066;28;19915;-77
2022/03/27 12:51:24;;;;;;;;;;;13.10;99.90;;;;;;5095526;28;19984;-77
2022/03/27 12:54:01;;;;;;;;;;;13.20;99.90;;;;;;5095541;28;20002;-77
2022/03/27 12:56:26;;;;;;;;;;;13.20;99.90;;;;;;5095452;28;20002;-77
2022/03/27 12:58:52;;;;;;;;;;;13.20;99.90;;;;;;5095027;28;20015;-77
2022/03/27 13:01:19;;;;;;;;;;;13.20;99.90;;;;;;5094225;28;19916;-77
2022/03/27 13:04:00;;;;;;;;;;;13.20;99.90;;;;;;5095366;28;20412;-77
2022/03/27 13:06:34;;;;;;;;;;;13.40;99.90;;;;;;5095054;28;20269;-77
2022/03/27 13:09:02;;;;;;;;;;;13.30;99.90;;;;;;5094623;28;19912;-77
2022/03/27 13:11:27;;;;;;;;;;;13.30;99.90;;;;;;5095271;28;19908;-77
2022/03/27 13:14:00;;;;;;;;;;;13.30;99.90;;;;;;5095427;28;19908;-77
2022/03/27 13:16:30;;;;;;;;;;;13.20;99.90;;;;;;5094879;28;19961;-77
2022/03/27 13:18:58;;;;;;;;;;;13.20;99.90;;;;;;5094773;28;20361;-77
2022/03/27 13:21:23;;;;;;;;;;;13.30;99.90;;;;;;5095086;28;19916;-77
2022/03/27 13:23:49;;;;;;;;;;;13.30;99.90;;;;;;5094639;28;19995;-77
2022/03/27 13:26:15;;;;;;;;;;;13.40;99.90;;;;;;5094615;28;19916;-78
2022/03/27 13:28:40;;;;;;;;;;;13.50;99.90;;;;;;5095101;28;19916;-77
2022/03/27 13:31:11;;;;;;;;;;;13.60;99.90;;;;;;5094486;28;20297;-77
2022/03/27 13:33:36;;;;;;;;;;;13.50;99.90;;;;;;5095020;28;20264;-77
2022/03/27 13:36:02;;;;;;;;;;;13.60;99.90;;;;;;5094231;28;19909;-77
2022/03/27 13:38:28;;;;;;;;;;;13.70;99.90;;;;;;5094902;28;19915;-77
2022/03/27 13:43:38;;;;;;;;;;;13.60;99.90;;;;;;5094618;28;20376;-77
2022/03/27 13:46:04;;;;;;;;;;;13.60;99.90;;;;;;5094001;28;19908;-77
2022/03/27 13:48:29;;;;;;;;;;;13.60;99.90;;;;;;5094659;28;19915;-77
2022/03/27 13:50:55;;;;;;;;;;;13.60;99.90;;;;;;5094710;28;20268;-77
2022/03/27 13:53:21;;;;;;;;;;;13.70;99.90;;;;;;5093568;28;19915;-77
2022/03/27 13:55:46;;;;;;;;;;;13.80;99.90;;;;;;5094306;28;19915;-77
2022/03/27 13:58:12;;;;;;;;;;;13.80;99.90;;;;;;5094201;28;20353;-77
2022/03/27 14:00:37;;;;;;;;;;;13.70;99.90;;;;;;5094024;28;19977;-76
2022/03/27 14:03:03;;;;;;;;;;;13.70;99.90;;;;;;5093535;28;19916;-76
2022/03/27 14:05:28;;;;;;;;;;;13.70;99.90;;;;;;5094144;28;20308;-76
2022/03/27 14:07:55;;;;;;;;;;;13.70;99.90;;;;;;5094544;28;19915;-76
2022/03/27 14:10:21;;;;;;;;;;;13.50;99.90;;;;;;5093360;28;19912;-76
2022/03/27 14:12:46;;;;;;;;;;;13.50;99.90;;;;;;5094170;28;20008;-76
2022/03/27 14:15:12;;;;;;;;;;;13.50;99.90;;;;;;5101803;28;19923;-76
2022/03/27 14:17:38;;;;;;;;;;;13.30;99.90;;;;;;5094595;28;20343;-76
2022/03/27 14:20:03;;;;;;;;;;;13.20;99.90;;;;;;5093542;28;20308;-76
2022/03/27 14:22:29;;;;;;;;;;;13.20;99.90;;;;;;5093501;28;20023;-76
2022/03/27 14:24:55;;;;;;;;;;;13.00;99.90;;;;;;5093792;28;19912;-76
2022/03/27 14:27:20;;;;;;;;;;;12.90;99.90;;;;;;5089719;28;19915;-78
2022/03/27 14:29:46;;;;;;;;;;;12.80;99.90;;;;;;5113630;27;19912;-76
2022/03/27 14:32:11;;;;;;;;;;;12.80;99.90;;;;;;5071509;28;19948;-75
2022/03/27 14:34:37;;;;;;;;;;;12.90;99.90;;;;;;5072341;28;19912;-75
2022/03/27 14:37:04;;;;;;;;;;;12.90;99.90;;;;;;5072265;28;19947;-76